createdAt,value
2019-02-02T00:01:54.314Z,87.55
2019-02-02T00:07:02.421Z,90.28
2019-02-02T00:12:10.590Z,89.21
2019-02-02T00:17:18.673Z,90.38
2019-02-02T00:22:26.821Z,89.69
2019-02-02T00:27:41.630Z,94.59
2019-02-02T00:32:42.530Z,89.10
2019-02-02T00:37:50.466Z,91.95
2019-02-02T00:42:58.569Z,91.77
2019-02-02T00:48:06.663Z,93.59
2019-02-02T00:53:14.649Z,89.66
2019-02-02T00:58:22.649Z,89.27
2019-02-02T01:03:30.813Z,93.36
2019-02-02T01:08:39.085Z,92.22
2019-02-02T01:13:47.187Z,86.77
2019-02-02T01:18:55.261Z,88.27
2019-02-02T01:24:03.386Z,90.22
2019-02-02T01:29:11.505Z,84.35
2019-02-02T01:34:19.461Z,85.12
2019-02-02T01:39:27.477Z,85.27
2019-02-02T01:44:35.547Z,90.16
2019-02-02T01:49:43.685Z,91.28
2019-02-02T01:54:51.830Z,91.86
2019-02-02T01:59:59.918Z,84.91
2019-02-02T02:05:08.055Z,86.37
2019-02-02T02:10:16.365Z,88.06
2019-02-02T02:15:24.329Z,95.48
2019-02-02T02:20:32.293Z,88.50
2019-02-02T02:25:40.490Z,90.61
2019-02-02T02:30:48.493Z,89.71
2019-02-02T02:35:56.613Z,93.08
2019-02-02T02:41:04.704Z,91.44
2019-02-02T02:46:12.849Z,84.53
2019-02-02T02:51:20.957Z,90.16
2019-02-02T02:56:29.061Z,91.41
2019-02-02T03:01:37.871Z,89.11
2019-02-02T03:06:45.786Z,89.59
2019-02-02T03:11:53.902Z,88.51
2019-02-02T03:17:01.850Z,98.32
2019-02-02T03:22:09.926Z,86.53
2019-02-02T03:27:18.038Z,87.77
2019-02-02T03:32:26.093Z,87.99
2019-02-02T03:37:34.172Z,93.22
2019-02-02T03:42:42.222Z,90.32
2019-02-02T03:47:50.372Z,88.56
2019-02-02T03:52:58.494Z,87.78
2019-02-02T03:58:06.431Z,90.22
2019-02-02T04:03:14.545Z,88.83
2019-02-02T04:08:22.631Z,94.40
2019-02-02T04:13:30.688Z,93.96
2019-02-02T04:18:38.665Z,90.63
2019-02-02T04:23:46.686Z,95.01
2019-02-02T04:28:54.775Z,90.39
2019-02-02T04:33:57.109Z,95.77
2019-02-02T04:39:05.252Z,95.03
2019-02-02T04:44:13.347Z,88.78
2019-02-02T04:49:21.533Z,92.29
2019-02-02T04:54:29.621Z,96.66
2019-02-02T04:59:37.564Z,94.40
2019-02-02T05:04:45.669Z,95.56
2019-02-02T05:09:53.628Z,96.22
2019-02-02T05:15:01.609Z,93.05
2019-02-02T05:20:09.537Z,93.39
2019-02-02T05:25:17.633Z,95.37
2019-02-02T05:30:25.792Z,95.68
2019-02-02T05:35:33.781Z,97.03
2019-02-02T05:40:41.839Z,97.92
2019-02-02T05:45:49.888Z,100.01
2019-02-02T05:50:57.961Z,102.08
2019-02-02T05:56:05.945Z,101.88
2019-02-02T06:01:14.025Z,101.17
2019-02-02T06:06:21.961Z,100.21
2019-02-02T06:11:29.925Z,101.35
2019-02-02T06:16:37.938Z,104.91
2019-02-02T06:21:46.020Z,105.38
2019-02-02T06:26:54.007Z,105.57
2019-02-02T06:32:11.457Z,103.02
2019-02-02T06:37:09.357Z,110.43
2019-02-02T06:42:17.511Z,106.17
2019-02-02T06:47:25.593Z,109.05
2019-02-02T06:52:33.551Z,112.33
2019-02-02T06:57:39.997Z,114.24
2019-02-02T07:02:47.979Z,113.64
2019-02-02T07:07:56.049Z,112.71
2019-02-02T07:13:04.029Z,111.19
2019-02-02T07:18:12.065Z,117.03
2019-02-02T07:23:20.205Z,116.22
2019-02-02T07:28:28.313Z,117.84
2019-02-02T07:33:36.401Z,117.05
2019-02-02T07:38:44.396Z,108.26
2019-02-02T07:43:52.348Z,112.95
2019-02-02T07:49:00.657Z,117.31
2019-02-02T07:54:08.921Z,115.73
2019-02-02T07:59:17.022Z,119.66
2019-02-02T08:04:25.104Z,117.25
2019-02-02T08:09:33.037Z,116.08
2019-02-02T08:14:41.140Z,111.82
2019-02-02T08:19:49.222Z,117.54
2019-02-02T08:24:57.195Z,117.91
2019-02-02T08:30:05.297Z,120.64
2019-02-02T08:35:13.441Z,118.50
2019-02-02T08:40:21.579Z,119.03
2019-02-02T08:45:29.542Z,114.62
2019-02-02T08:50:37.593Z,114.50
2019-02-02T08:55:45.906Z,124.82
2019-02-02T09:01:03.828Z,126.71
2019-02-02T09:06:01.289Z,123.14
2019-02-02T09:11:09.319Z,121.29
2019-02-02T09:16:17.401Z,126.69
2019-02-02T09:21:25.353Z,128.63
2019-02-02T09:26:33.380Z,126.31
2019-02-02T09:31:41.464Z,126.82
2019-02-02T09:36:49.666Z,125.35
2019-02-02T09:41:57.673Z,130.64
2019-02-02T09:47:05.802Z,129.98
2019-02-02T09:52:13.850Z,126.34
2019-02-02T09:57:22.039Z,129.97
2019-02-02T10:02:30.071Z,129.18
2019-02-02T10:07:38.079Z,126.39
2019-02-02T10:12:46.153Z,134.56
2019-02-02T10:17:54.279Z,141.83
2019-02-02T10:23:02.461Z,126.18
2019-02-02T10:28:10.557Z,130.81
2019-02-02T10:33:18.656Z,126.58
2019-02-02T10:38:26.823Z,130.80
2019-02-02T10:43:34.766Z,134.90
2019-02-02T10:48:42.773Z,130.17
2019-02-02T10:53:50.734Z,137.21
2019-02-02T10:58:59.206Z,140.14
2019-02-02T11:04:07.300Z,135.07
2019-02-02T11:09:15.563Z,142.87
2019-02-02T11:14:23.694Z,139.49
2019-02-02T11:19:31.754Z,146.02
2019-02-02T11:24:39.917Z,149.38
2019-02-02T11:29:47.891Z,145.77
2019-02-02T11:34:55.857Z,138.04
2019-02-02T11:40:04.013Z,137.76
2019-02-02T11:45:12.032Z,142.02
2019-02-02T11:50:20.264Z,136.87
2019-02-02T11:55:28.361Z,142.19
2019-02-02T12:00:36.519Z,135.52
2019-02-02T12:05:44.498Z,138.81
2019-02-02T12:10:52.649Z,130.48
2019-02-02T12:16:00.591Z,135.82
2019-02-02T12:21:08.537Z,136.58
2019-02-02T12:26:16.818Z,145.57
2019-02-02T12:31:23.278Z,142.14
2019-02-02T12:37:24.305Z,157.57
2019-02-02T12:42:23.261Z,145.70
2019-02-02T12:47:31.523Z,150.77
2019-02-02T12:52:39.736Z,144.11
2019-02-02T12:57:48.023Z,151.46
2019-02-02T13:02:56.312Z,145.28
2019-02-02T13:08:05.463Z,141.90
2019-02-02T13:13:12.145Z,147.44
2019-02-02T13:18:20.357Z,140.81
2019-02-02T13:23:22.461Z,147.14
2019-02-02T13:28:30.673Z,144.33
2019-02-02T13:33:38.853Z,141.19
2019-02-02T13:38:47.122Z,140.57
2019-02-02T13:43:55.280Z,145.01
2019-02-02T13:49:03.494Z,150.14
2019-02-02T13:54:11.938Z,150.43
2019-02-02T13:59:20.285Z,151.78
2019-02-02T14:04:28.777Z,153.64
2019-02-02T14:09:36.944Z,147.44
2019-02-02T14:14:45.278Z,145.70
2019-02-02T14:19:53.607Z,155.44
2019-02-02T14:25:01.829Z,156.22
2019-02-02T14:30:10.145Z,153.54
2019-02-02T14:35:18.373Z,151.41
2019-02-02T14:40:26.679Z,148.99
2019-02-02T14:45:34.929Z,144.88
2019-02-02T14:50:43.339Z,138.92
2019-02-02T14:55:51.613Z,142.67
2019-02-02T15:00:59.902Z,144.22
2019-02-02T15:06:09.734Z,136.23
2019-02-02T15:11:15.878Z,140.41
2019-02-02T15:16:24.149Z,136.12
2019-02-02T15:21:32.311Z,138.67
2019-02-02T15:26:40.628Z,139.99
2019-02-02T15:31:48.870Z,136.09
2019-02-02T15:36:57.213Z,145.58
2019-02-02T15:42:05.583Z,148.46
2019-02-02T15:47:13.847Z,135.05
2019-02-02T15:52:22.167Z,139.67
2019-02-02T15:57:30.432Z,150.70
2019-02-02T16:02:38.914Z,150.78
2019-02-02T16:07:47.190Z,142.17
2019-02-02T16:12:55.480Z,142.09
2019-02-02T16:18:03.750Z,149.86
2019-02-02T16:23:12.132Z,160.17
2019-02-02T16:28:20.347Z,149.47
2019-02-02T16:33:28.626Z,136.33
2019-02-02T16:38:36.957Z,141.95
2019-02-02T16:43:45.276Z,140.35
2019-02-02T16:48:53.432Z,142.08
2019-02-02T16:54:01.754Z,135.97
2019-02-02T16:59:10.121Z,135.58
2019-02-02T17:04:18.375Z,136.94
2019-02-02T17:09:26.522Z,140.52
2019-02-02T17:14:34.855Z,137.19
2019-02-02T17:19:43.209Z,149.51
2019-02-02T17:24:51.378Z,144.55
2019-02-02T17:29:59.732Z,139.84
2019-02-02T17:35:08.085Z,145.75
2019-02-02T17:40:16.357Z,145.34
2019-02-02T17:45:24.765Z,145.16
2019-02-02T17:50:33.175Z,145.78
2019-02-02T17:55:41.469Z,138.97
2019-02-02T18:00:49.746Z,143.10
2019-02-02T18:05:58.312Z,148.91
2019-02-02T18:11:06.554Z,150.59
2019-02-02T18:16:14.882Z,148.34
2019-02-02T18:21:23.312Z,143.71
2019-02-02T18:26:31.719Z,138.69
2019-02-02T18:31:39.900Z,147.62
2019-02-02T18:36:48.598Z,142.68
2019-02-02T18:41:56.964Z,142.94
2019-02-02T18:47:05.275Z,145.52
2019-02-02T18:52:13.992Z,137.53
2019-02-02T18:57:22.216Z,141.16
2019-02-02T19:02:30.570Z,139.15
2019-02-02T19:07:39.115Z,144.10
2019-02-02T19:12:47.494Z,138.61
2019-02-02T19:17:55.780Z,140.54
2019-02-02T19:23:04.077Z,138.58
2019-02-02T19:28:12.345Z,134.07
2019-02-02T19:33:20.674Z,130.82
2019-02-02T19:38:28.965Z,128.32
2019-02-02T19:43:37.215Z,132.82
2019-02-02T19:48:46.054Z,122.92
2019-02-02T19:53:54.413Z,123.85
2019-02-02T19:59:02.805Z,137.65
2019-02-02T20:04:11.162Z,130.64
2019-02-02T20:09:19.558Z,129.88
2019-02-02T20:14:27.757Z,128.86
2019-02-02T20:19:36.051Z,136.81
2019-02-02T20:24:45.062Z,134.39
2019-02-02T20:29:53.385Z,137.62
2019-02-02T20:35:02.578Z,133.94
2019-02-02T20:40:15.160Z,141.53
2019-02-02T20:45:13.358Z,130.10
2019-02-02T20:50:21.854Z,126.49
2019-02-02T20:55:30.113Z,127.54
2019-02-02T21:00:38.278Z,133.07
2019-02-02T21:05:52.349Z,123.95
2019-02-02T21:10:54.613Z,130.21
2019-02-02T21:16:04.132Z,129.34
2019-02-02T21:21:12.457Z,133.36
2019-02-02T21:26:20.714Z,133.51
2019-02-02T21:31:28.925Z,124.63
2019-02-02T21:36:37.167Z,130.31
2019-02-02T21:41:45.310Z,124.04
2019-02-02T21:46:53.919Z,131.80
2019-02-02T21:52:02.145Z,128.40
2019-02-02T21:57:10.354Z,125.58
2019-02-02T22:02:18.590Z,122.43
2019-02-02T22:07:26.723Z,118.51
2019-02-02T22:12:35.074Z,123.53
2019-02-02T22:17:43.358Z,112.61
2019-02-02T22:22:51.505Z,115.08
2019-02-02T22:27:59.720Z,115.87
2019-02-02T22:33:09.465Z,108.64
2019-02-02T22:38:17.673Z,108.96
2019-02-02T22:43:25.953Z,104.82
2019-02-02T22:48:34.161Z,112.70
2019-02-02T22:53:42.373Z,113.32
2019-02-02T22:58:51.357Z,108.27
2019-02-02T23:03:59.873Z,110.80
2019-02-02T23:09:08.090Z,111.35
2019-02-02T23:14:17.002Z,110.67
2019-02-02T23:19:25.140Z,114.57
2019-02-02T23:24:33.425Z,113.06
2019-02-02T23:29:41.606Z,117.90
2019-02-02T23:34:49.860Z,114.13
2019-02-02T23:39:58.039Z,122.38
2019-02-02T23:45:06.313Z,119.25
2019-02-02T23:50:14.517Z,121.46
2019-02-02T23:55:23.042Z,121.84
